Latest Weather Observations for Moruya Airport

IDN60901

Issued at 8:51 am EDT Tuesday 17 January 2017 (issued every 10 minutes, with the page automatically refreshed every 10 minutes)

About weather observations | Map of Canberra area stations | Latest observations for Canberra area | Other Formats
Station Details ID: 069148 Name: MORUYA AIRPORT AWS Lat: -35.90 Lon: 150.14 Height: 4.0 m
Data from the previous 72 hours. | See also: Recent months at Moruya Airport
Date/Time
EDT
Temp
°C
App
Temp
°C
Dew
Point
°C
Rel
Hum
%
Delta-T
°C
Wind Press
QNH
hPa
Press
MSL
hPa
Rain since
9am
mm
Dir  Spd
km/h
Gust
km/h
Spd
kts
Gust
kts
17/08:30am 25.4 25.7 17.8 62 4.8 N 13 24 7 13 1010.0 1009.9 0.0
17/08:07am 23.0 24.2 18.3 75 2.9 N 9 19 5 10 1010.3 1010.2 0.0
17/08:00am 22.9 24.8 19.7 82 2.1 N 9 13 5 7 1010.4 1010.3 0.0
17/07:34am 20.2 23.6 19.4 95 0.5 CALM 0 6 0 3 1010.5 1010.4 0.0
17/07:30am 20.1 23.1 19.3 95 0.5 NNW 2 6 1 3 1010.5 1010.4 0.0
17/07:13am 18.9 21.8 18.1 95 0.5 CALM 0 4 0 2 1010.5 1010.4 0.0
17/07:00am 18.4 20.3 17.6 95 0.5 SW 4 7 2 4 1010.5 1010.4 0.0
17/06:30am 15.9 16.8 15.1 95 0.5 NNW 4 7 2 4 1010.4 1010.3 0.0
17/06:00am 15.6 17.2 14.8 95 0.5 CALM 0 0 0 0 1010.4 1010.3 0.0
17/05:30am 15.7 17.3 14.9 95 0.5 CALM 0 0 0 0 1010.6 1010.5 0.0
17/05:00am 16.6 18.5 15.8 95 0.5 CALM 0 0 0 0 1010.6 1010.5 0.0
17/04:30am 16.7 18.2 15.7 94 0.6 WSW 2 6 1 3 1010.4 1010.3 0.0
17/04:00am 16.6 18.4 15.6 94 0.6 CALM 0 0 0 0 1010.7 1010.6 0.0
17/03:30am 17.4 19.6 16.4 94 0.6 CALM 0 0 0 0 1010.8 1010.7 0.0
17/03:00am 17.5 19.7 16.5 94 0.6 CALM 0 0 0 0 1011.1 1011.0 0.0
17/02:30am 17.3 19.4 16.2 93 0.7 CALM 0 0 0 0 1011.4 1011.3 0.0
17/02:00am 17.7 19.9 16.6 93 0.7 CALM 0 0 0 0 1011.7 1011.6 0.0
17/01:30am 17.7 19.9 16.6 93 0.7 CALM 0 0 0 0 1012.2 1012.1 0.0
17/01:00am 18.2 20.6 17.0 93 0.7 CALM 0 0 0 0 1012.5 1012.4 0.0
17/12:30am 18.6 21.2 17.4 93 0.7 CALM 0 0 0 0 1012.9 1012.8 0.0
17/12:00am 18.3 20.7 17.0 92 0.8 CALM 0 0 0 0 1013.4 1013.3 0.0
 
Date/Time
EDT
Temp
°C
App
Temp
°C
Dew
Point
°C
Rel
Hum
%
Delta-T
°C
Wind Press
QNH
hPa
Press
MSL
hPa
Rain since
9am
mm
Dir  Spd
km/h
Gust
km/h
Spd
kts
Gust
kts
16/11:30pm 19.1 21.7 17.6 91 0.9 CALM 0 0 0 0 1013.8 1013.7 0.0
16/11:00pm 18.9 21.0 17.2 90 1.0 NW 2 7 1 4 1014.2 1014.1 0.0
16/10:30pm 19.9 22.8 18.2 90 1.1 CALM 0 0 0 0 1014.2 1014.1 0.0
16/10:00pm 21.0 24.2 18.8 87 1.4 CALM 0 0 0 0 1014.4 1014.3 0.0
16/09:30pm 21.9 24.2 19.5 86 1.5 NE 6 7 3 4 1014.3 1014.2 0.0
16/09:00pm 21.9 24.4 19.1 84 1.8 NNE 4 9 2 5 1014.2 1014.1 0.0
16/08:30pm 22.7 24.1 19.5 82 2.0 NNE 11 15 6 8 1013.8 1013.7 0.0
16/08:00pm 23.4 23.7 19.5 79 2.5 NNE 17 20 9 11 1013.5 1013.4 0.0
16/07:30pm 24.0 23.8 19.7 77 2.8 NE 20 26 11 14 1013.2 1013.1 0.0
16/07:29pm 24.0 23.8 19.7 77 2.8 NE 20 26 11 14 1013.1 1013.0 0.0
16/07:10pm 24.4 23.7 19.5 74 3.1 NE 22 28 12 15 1012.9 1012.8 0.0
16/07:07pm 24.5 23.8 19.6 74 3.2 NNE 22 30 12 16 1012.9 1012.8 0.0
16/07:00pm 24.4 23.7 19.5 74 3.1 NE 22 30 12 16 1012.8 1012.7 0.0
16/06:48pm 24.5 23.3 19.3 73 3.3 NE 24 30 13 16 1012.6 1012.5 0.0
16/06:30pm 24.7 23.6 19.5 73 3.3 NE 24 32 13 17 1012.3 1012.2 0.0
16/06:00pm 25.1 24.2 19.9 73 3.4 NE 24 32 13 17 1012.0 1011.9 0.0
16/05:30pm 25.5 25.1 20.1 72 3.5 NE 22 30 12 16 1011.8 1011.7 0.0
16/05:13pm 25.8 25.5 20.4 72 3.5 NE 22 30 12 16 1011.7 1011.6 0.0
16/05:03pm 25.9 25.4 20.0 70 3.8 NE 22 30 12 16 1011.6 1011.5 0.0
16/05:00pm 25.8 25.3 19.9 70 3.8 NE 22 30 12 16 1011.7 1011.6 0.0
16/04:30pm 26.6 26.0 19.7 66 4.5 NE 22 33 12 18 1011.8 1011.7 0.0
16/04:00pm 26.0 24.8 20.1 70 3.8 NE 26 33 14 18 1011.8 1011.7 0.0
16/03:30pm 26.5 25.4 20.3 68 4.1 NE 26 35 14 19 1011.9 1011.8 0.0
16/03:00pm 26.6 25.2 20.4 69 4.1 NE 28 37 15 20 1012.1 1012.0 0.0
16/02:30pm 26.1 25.1 19.7 68 4.1 NE 24 35 13 19 1012.3 1012.2 0.0
16/02:00pm 26.2 25.8 20.1 69 4.0 NE 22 32 12 17 1012.3 1012.2 0.0
16/01:30pm 25.7 24.5 19.3 67 4.1 NE 24 33 13 18 1012.5 1012.4 0.0
16/01:00pm 25.6 24.8 19.3 68 4.0 NE 22 30 12 16 1012.9 1012.8 0.0
16/12:30pm 25.1 24.3 19.2 70 3.8 NE 22 30 12 16 1013.2 1013.1 0.0
16/12:00pm 25.2 25.0 19.8 72 3.5 NE 20 28 11 15 1013.5 1013.4 0.0
16/11:30am 25.2 24.7 20.0 73 3.4 NE 22 28 12 15 1013.9 1013.8 0.0
16/11:00am 24.5 24.1 19.3 73 3.3 NE 20 28 11 15 1014.3 1014.2 0.0
16/10:30am 23.4 22.6 18.5 74 3.1 NE 20 26 11 14 1014.6 1014.5 0.0
16/10:00am 22.8 21.7 18.6 77 2.6 NE 22 26 12 14 1014.9 1014.8 0.0
16/09:30am 22.6 22.7 18.4 77 2.6 ENE 15 20 8 11 1015.2 1015.1 0.0
16/09:00am 22.2 22.2 17.3 74 3.0 NE 13 17 7 9 1015.4 1015.3 5.8
16/08:30am 21.5 21.5 17.3 77 2.6 NNE 13 17 7 9 1015.7 1015.6 5.8
16/08:00am 20.1 20.7 16.7 81 2.1 N 9 15 5 8 1015.7 1015.6 5.8
16/07:30am 19.0 20.4 17.3 90 1.0 NNW 6 9 3 5 1015.5 1015.4 5.8
16/07:00am 17.8 18.9 16.7 93 0.7 NNW 6 9 3 5 1015.5 1015.4 5.8
16/06:59am 17.7 18.8 16.6 93 0.7 NNW 6 9 3 5 1015.6 1015.5 5.8
16/06:30am 17.3 19.3 16.0 92 0.8 CALM 0 0 0 0 1015.5 1015.4 5.8
16/06:00am 17.7 19.8 16.2 91 0.9 CALM 0 6 0 3 1015.6 1015.5 5.8
16/05:52am 17.8 19.5 16.3 91 0.9 NNW 2 6 1 3 1015.5 1015.4 5.8
16/05:30am 18.2 19.7 16.7 91 0.9 NNW 4 9 2 5 1015.6 1015.5 5.8
16/05:00am 18.0 19.5 16.7 92 0.8 NW 4 9 2 5 1015.6 1015.5 5.8
16/04:30am 18.0 19.9 16.7 92 0.8 NNW 2 9 1 5 1015.6 1015.5 5.8
16/04:00am 18.1 20.5 17.0 93 0.7 CALM 0 0 0 0 1015.6 1015.5 5.8
16/03:57am 18.1 20.5 17.0 93 0.7 CALM 0 2 0 1 1015.7 1015.6 5.8
16/03:30am 18.1 20.5 17.0 93 0.7 CALM 0 0 0 0 1015.8 1015.7 5.8
16/03:12am 18.1 20.5 17.0 93 0.7 CALM 0 0 0 0 1016.0 1015.9 5.8
16/03:00am 18.0 20.4 16.9 93 0.7 CALM 0 0 0 0 1016.1 1016.0 5.8
16/02:30am 18.0 20.4 16.9 93 0.7 CALM 0 0 0 0 1016.3 1016.2 5.8
16/02:05am 18.1 20.5 17.0 93 0.7 CALM 0 0 0 0 1016.6 1016.5 5.8
16/02:00am 18.1 20.5 17.0 93 0.7 CALM 0 0 0 0 1016.7 1016.6 5.8
16/01:30am 18.2 20.6 17.0 93 0.7 CALM 0 0 0 0 1017.1 1017.0 5.8
16/01:14am 18.2 20.6 17.0 93 0.7 CALM 0 0 0 0 1017.3 1017.2 5.8
16/01:07am 18.2 20.6 17.0 93 0.7 CALM 0 0 0 0 1017.4 1017.3 5.8
16/01:00am 18.2 20.6 17.0 93 0.7 CALM 0 0 0 0 1017.4 1017.3 5.8
16/12:33am 18.3 20.7 17.1 93 0.7 CALM 0 0 0 0 1017.7 1017.6 5.8
16/12:30am 18.3 20.7 17.1 93 0.7 CALM 0 0 0 0 1017.7 1017.6 5.8
16/12:03am 18.3 20.7 17.1 93 0.7 CALM 0 0 0 0 1017.9 1017.8 5.8
16/12:00am 18.3 20.7 17.1 93 0.7 CALM 0 0 0 0 1017.8 1017.7 5.8
 
Date/Time
EDT
Temp
°C
App
Temp
°C
Dew
Point
°C
Rel
Hum
%
Delta-T
°C
Wind Press
QNH
hPa
Press
MSL
hPa
Rain since
9am
mm
Dir  Spd
km/h
Gust
km/h
Spd
kts
Gust
kts
15/11:48pm 18.3 20.4 17.1 93 0.7 WNW 2 6 1 3 1017.8 1017.7 5.8
15/11:30pm 18.3 20.7 17.1 93 0.7 CALM 0 0 0 0 1017.8 1017.7 5.8
15/11:02pm 18.4 20.1 17.2 93 0.7 WNW 4 6 2 3 1018.0 1017.9 5.8
15/11:00pm 18.4 20.1 17.2 93 0.7 WNW 4 6 2 3 1018.0 1017.9 5.8
15/10:30pm 18.4 19.7 17.2 93 0.7 WSW 6 7 3 4 1018.2 1018.1 5.8
15/10:15pm 18.4 20.1 17.2 93 0.7 SW 4 9 2 5 1018.0 1017.9 5.8
15/10:00pm 18.2 20.6 17.0 93 0.7 CALM 0 4 0 2 1018.0 1017.9 5.6
15/09:30pm 18.3 20.7 17.0 92 0.8 CALM 0 0 0 0 1017.8 1017.7 4.8
15/09:00pm 18.4 18.7 17.1 92 0.8 NE 11 15 6 8 1017.8 1017.7 2.6
15/08:30pm 18.5 19.6 17.0 91 0.9 N 7 11 4 6 1017.6 1017.5 0.8
15/08:22pm 18.6 19.6 16.9 90 1.0 N 7 11 4 6 1017.6 1017.5 0.2
15/08:13pm 18.5 19.5 16.8 90 1.0 N 7 11 4 6 1017.6 1017.5 0.0
15/08:07pm 18.6 19.2 16.9 90 1.0 N 9 11 5 6 1017.6 1017.5 0.0
15/08:06pm 18.6 19.2 16.9 90 1.0 N 9 11 5 6 1017.6 1017.5 0.0
15/08:00pm 18.6 19.2 16.8 89 1.1 N 9 13 5 7 1017.5 1017.4 0.0
15/07:51pm 18.7 19.0 16.9 89 1.1 N 11 15 6 8 1017.5 1017.4 0.0
15/07:38pm 18.9 18.6 16.5 86 1.4 NNE 13 17 7 9 1017.4 1017.3 0.0
15/07:31pm 19.2 18.9 16.4 84 1.7 NNE 13 17 7 9 1017.4 1017.3 0.0
15/07:30pm 19.2 18.9 16.4 84 1.7 NNE 13 17 7 9 1017.4 1017.3 0.0
15/07:14pm 19.9 20.2 16.0 78 2.3 NNE 9 11 5 6 1017.1 1017.0 0.0
15/07:00pm 19.5 20.2 16.0 80 2.1 NE 7 11 4 6 1016.9 1016.8 0.0
15/06:30pm 20.4 20.1 15.4 73 3.0 NNE 11 19 6 10 1016.6 1016.5 0.0
15/06:02pm 20.8 20.4 15.1 70 3.4 ENE 11 15 6 8 1016.5 1016.4 0.0
15/06:00pm 20.7 20.2 15.0 70 3.4 ENE 11 15 6 8 1016.5 1016.4 0.0
15/05:38pm 20.8 20.2 14.7 68 3.6 ENE 11 15 6 8 1016.5 1016.4 0.0
15/05:30pm 20.7 20.1 14.6 68 3.6 ENE 11 17 6 9 1016.4 1016.3 0.0
15/05:00pm 21.2 20.4 14.1 64 4.1 ENE 11 17 6 9 1016.5 1016.4 0.0
15/04:30pm 21.5 20.1 14.6 65 4.0 ENE 15 17 8 9 1016.5 1016.4 0.0
15/04:00pm 21.4 19.9 14.3 64 4.1 ENE 15 19 8 10 1016.8 1016.7 0.0
15/03:30pm 21.6 20.1 14.3 63 4.3 ENE 15 19 8 10 1016.6 1016.5 0.0
15/03:05pm 21.8 20.3 15.2 66 3.9 ENE 17 20 9 11 1016.5 1016.4 0.0
15/03:00pm 21.8 20.0 14.4 63 4.3 ENE 17 19 9 10 1016.6 1016.5 0.0
15/02:48pm 22.0 20.2 14.4 62 4.5 ENE 17 20 9 11 1016.6 1016.5 0.0
15/02:30pm 21.9 20.3 13.8 60 4.7 ENE 15 19 8 10 1016.8 1016.7 0.0
15/02:00pm 22.2 20.7 14.3 61 4.6 E 15 20 8 11 1016.7 1016.6 0.0
15/01:40pm 22.5 21.2 13.8 58 5.1 ENE 13 17 7 9 1016.6 1016.5 0.0
15/01:30pm 22.6 20.5 13.7 57 5.2 E 17 20 9 11 1016.6 1016.5 0.0
15/01:28pm 22.6 20.6 13.9 58 5.1 E 17 20 9 11 1016.6 1016.5 0.0
15/01:00pm 22.7 20.9 13.2 55 5.5 ENE 15 19 8 10 1016.6 1016.5 0.0
15/12:30pm 21.9 20.3 12.7 56 5.2 E 13 15 7 8 1016.7 1016.6 0.0
15/12:00pm 21.8 20.6 12.9 57 5.1 ESE 11 17 6 9 1017.0 1016.9 0.0
15/11:30am 21.4 19.3 12.3 56 5.1 SSE 15 19 8 10 1016.8 1016.7 0.0
15/11:00am 20.5 17.9 12.0 58 4.7 SE 17 22 9 12 1016.8 1016.7 0.0
15/10:30am 20.5 18.1 12.5 60 4.5 SSE 17 22 9 12 1016.7 1016.6 0.0
15/10:00am 19.7 17.1 12.0 61 4.3 SSE 17 20 9 11 1016.4 1016.3 0.0
15/09:30am 19.7 17.1 12.0 61 4.3 SSE 17 22 9 12 1016.1 1016.0 0.0
15/09:00am 19.2 15.6 12.0 63 4.0 SSE 22 33 12 18 1016.0 1015.9 0.0
15/08:30am 19.4 15.8 12.9 66 3.7 SSE 24 32 13 17 1015.6 1015.5 0.0
15/08:00am 18.8 15.1 13.9 73 2.8 SSE 26 33 14 18 1015.2 1015.1 0.0
15/07:30am 19.1 17.1 13.9 72 3.0 SSE 17 24 9 13 1014.9 1014.8 0.0
15/07:00am 17.9 18.3 16.2 90 1.0 NW 9 13 5 7 1014.2 1014.1 0.0
15/06:30am 17.2 17.9 15.7 91 0.9 NNW 6 9 3 5 1013.7 1013.6 0.0
15/06:03am 16.6 16.9 15.0 90 0.9 NNW 7 9 4 5 1013.2 1013.1 0.0
15/06:00am 16.5 16.8 14.9 90 0.9 N 7 7 4 4 1013.3 1013.2 0.0
15/05:39am 17.5 17.8 16.0 91 0.9 N 9 11 5 6 1013.0 1012.9 0.0
15/05:30am 17.8 18.3 16.5 92 0.8 NE 9 13 5 7 1012.9 1012.8 0.0
15/05:00am 16.5 16.8 15.0 91 0.9 NNW 7 9 4 5 1012.6 1012.5 0.0
15/04:30am 16.6 17.1 15.1 91 0.9 NW 6 7 3 4 1012.3 1012.2 0.0
15/04:00am 16.7 18.3 14.9 89 1.0 CALM 0 0 0 0 1012.2 1012.1 0.0
15/03:30am 17.0 18.6 14.8 87 1.3 CALM 0 0 0 0 1012.0 1011.9 0.0
15/03:00am 18.2 18.8 15.3 83 1.7 NW 6 7 3 4 1012.0 1011.9 0.0
15/02:41am 18.8 19.4 15.3 80 2.1 NNW 6 9 3 5 1011.9 1011.8 0.0
15/02:30am 19.2 19.7 15.5 79 2.2 NNW 7 9 4 5 1011.9 1011.8 0.0
15/02:24am 19.4 19.9 15.5 78 2.3 NNW 7 11 4 6 1012.0 1011.9 0.0
15/02:00am 20.1 20.0 15.9 77 2.5 N 11 17 6 9 1012.1 1012.0 0.0
15/01:30am 20.4 20.3 16.0 76 2.6 N 11 15 6 8 1012.3 1012.2 0.0
15/01:23am 20.4 20.2 15.8 75 2.7 N 11 20 6 11 1012.3 1012.2 0.0
15/01:05am 20.6 19.8 16.0 75 2.8 N 15 22 8 12 1012.3 1012.2 0.0
15/01:00am 20.7 19.9 16.1 75 2.8 N 15 22 8 12 1012.3 1012.2 0.0
15/12:30am 20.0 20.3 16.0 78 2.4 NNW 9 11 5 6 1012.5 1012.4 0.0
15/12:00am 20.6 20.9 16.0 75 2.8 N 9 11 5 6 1012.1 1012.0 0.0
 
Date/Time
EDT
Temp
°C
App
Temp
°C
Dew
Point
°C
Rel
Hum
%
Delta-T
°C
Wind Press
QNH
hPa
Press
MSL
hPa
Rain since
9am
mm
Dir  Spd
km/h
Gust
km/h
Spd
kts
Gust
kts
14/11:50pm 20.9 20.8 16.1 74 2.9 N 11 15 6 8 1012.1 1012.0 0.0
14/11:40pm 21.2 21.2 16.2 73 3.0 N 11 17 6 9 1012.0 1011.9 0.0
14/11:30pm 21.3 21.3 16.3 73 3.0 N 11 17 6 9 1011.9 1011.8 0.0
14/11:05pm 21.3 21.7 16.3 73 3.0 N 9 13 5 7 1011.7 1011.6 0.0
14/11:00pm 21.5 22.0 16.5 73 3.0 N 9 13 5 7 1011.6 1011.5 0.0
14/10:51pm 21.3 22.1 16.3 73 3.0 NNW 7 11 4 6 1011.6 1011.5 0.0
14/10:30pm 21.4 21.8 16.4 73 3.0 NNW 9 13 5 7 1011.3 1011.2 0.0
14/10:01pm 21.0 21.7 16.2 74 2.9 NNW 7 11 4 6 1010.9 1010.8 0.0
14/10:00pm 21.0 21.7 16.2 74 2.9 NNW 7 11 4 6 1010.9 1010.8 0.0
14/09:30pm 21.4 21.7 16.1 72 3.2 N 9 11 5 6 1010.1 1010.0 0.0
14/09:00pm 22.0 22.9 16.5 71 3.3 NNE 7 9 4 5 1009.7 1009.6 0.0
14/08:56pm 22.2 23.1 16.7 71 3.4 NNE 7 11 4 6 1009.6 1009.5 0.0
14/08:54pm 22.3 22.8 16.6 70 3.5 NNE 9 11 5 6 1009.6 1009.5 0.0
14/08:41pm 22.4 22.4 16.2 68 3.8 NNE 11 13 6 7 1009.2 1009.1 0.0
14/08:36pm 22.4 22.4 16.2 68 3.8 NNE 11 13 6 7 1009.1 1009.0 0.0
14/08:30pm 22.3 22.8 16.6 70 3.5 NNE 9 11 5 6 1009.0 1008.9 0.0
14/08:00pm 22.3 23.2 16.6 70 3.5 NE 7 13 4 7 1008.4 1008.3 0.0
14/07:57pm 22.5 23.6 17.0 71 3.4 NE 7 11 4 6 1008.3 1008.2 0.0
14/07:56pm 22.5 23.5 16.8 70 3.5 ENE 7 13 4 7 1008.3 1008.2 0.0
14/07:30pm 22.3 22.7 17.2 73 3.1 ENE 11 13 6 7 1007.7 1007.6 0.0
14/07:00pm 22.7 23.2 17.4 72 3.3 ENE 11 13 6 7 1007.2 1007.1 0.0
14/06:47pm 22.9 23.7 17.4 71 3.4 NE 9 13 5 7 1007.0 1006.9 0.0
14/06:36pm 22.7 23.1 17.2 71 3.4 ENE 11 17 6 9 1006.9 1006.8 0.0
14/06:30pm 22.7 22.6 16.9 70 3.6 ENE 13 17 7 9 1006.7 1006.6 0.0
14/06:00pm 22.7 22.8 17.4 72 3.3 E 13 17 7 9 1006.2 1006.1 0.0
14/05:55pm 22.5 22.5 17.2 72 3.3 E 13 17 7 9 1006.1 1006.0 0.0
14/05:36pm 22.6 22.8 17.7 74 3.0 E 13 15 7 8 1005.8 1005.7 0.0
14/05:30pm 22.7 23.0 17.8 74 3.0 E 13 17 7 9 1005.6 1005.5 0.0
14/05:20pm 22.6 23.2 17.7 74 3.0 ENE 11 15 6 8 1005.5 1005.4 0.0
14/05:08pm 22.7 23.0 18.0 75 2.9 E 13 17 7 9 1005.4 1005.3 0.0
14/05:00pm 22.7 23.0 17.8 74 3.1 ENE 13 17 7 9 1005.4 1005.3 0.0
14/04:57pm 22.8 23.1 17.9 74 3.1 ENE 13 17 7 9 1005.4 1005.3 0.0
14/04:30pm 22.6 22.8 17.7 74 3.0 ENE 13 17 7 9 1005.1 1005.0 0.0
14/04:29pm 22.7 23.0 17.8 74 3.0 ENE 13 15 7 8 1005.1 1005.0 0.0
14/04:10pm 22.7 23.0 17.8 74 3.0 ENE 13 17 7 9 1004.9 1004.8 0.0
14/04:00pm 22.7 22.6 17.8 74 3.1 E 15 19 8 10 1004.9 1004.8 0.0
14/03:30pm 22.8 22.3 17.9 74 3.1 E 17 20 9 11 1004.7 1004.6 0.0
14/03:00pm 23.3 22.9 18.0 72 3.3 E 17 20 9 11 1004.5 1004.4 0.0
14/02:30pm 23.3 23.3 18.0 72 3.3 E 15 19 8 10 1004.4 1004.3 0.0
14/02:24pm 23.7 23.8 18.4 72 3.3 E 15 17 8 9 1004.4 1004.3 0.0
14/02:06pm 23.5 23.3 17.5 69 3.7 E 15 19 8 10 1004.3 1004.2 0.0
14/02:00pm 23.5 23.0 17.7 70 3.6 E 17 20 9 11 1004.3 1004.2 0.0
14/01:30pm 23.7 23.9 17.7 69 3.7 E 13 17 7 9 1004.4 1004.3 0.0
14/01:00pm 23.8 23.7 17.8 69 3.8 ESE 15 19 8 10 1004.3 1004.2 0.0
14/12:30pm 23.7 23.8 17.4 68 3.9 ESE 13 19 7 10 1004.2 1004.1 0.0
14/12:00pm 23.8 23.5 17.3 67 4.0 ESE 15 19 8 10 1004.1 1004.0 0.0
14/11:30am 23.7 23.3 17.2 67 4.0 ESE 15 19 8 10 1004.0 1003.9 0.0
14/11:00am 23.9 23.9 17.2 66 4.2 SE 13 17 7 9 1003.9 1003.8 0.0
14/10:30am 22.8 22.6 16.6 68 3.8 SE 13 19 7 10 1004.0 1003.9 0.0
14/10:10am 22.7 22.7 16.3 67 3.9 SE 11 15 6 8 1004.0 1003.9 0.0
14/10:00am 22.3 22.2 16.1 68 3.8 SE 11 15 6 8 1004.0 1003.9 0.0
14/09:52am 22.4 22.4 16.2 68 3.8 SE 11 13 6 7 1004.1 1004.0 0.0
14/09:30am 22.6 23.0 16.4 68 3.8 SE 9 15 5 8 1004.2 1004.1 0.0
14/09:00am 21.8 22.4 15.9 69 3.6 SE 7 11 4 6 1004.2 1004.1 0.2

Latest Capital City Observations: Canberra | Sydney | Melbourne | Brisbane | Adelaide | Perth | Hobart | Darwin

Other Formats:

Comma delimited format used in spreadsheet applications
http://www.bom.gov.au/fwo/IDN60903/IDN60903.95937.axf

JavaScript Object Notation format (JSON) in row-major order
http://www.bom.gov.au/fwo/IDN60903/IDN60903.95937.json